Corrales, NM (87048)

2:20 AM MST on February 14, 2016 (GMT -0700)
Salida Del Sol | | Change Station
CLOSE
Current Station
Personal Weather Station
Location: Corrales, NM
Elevation: 5075 ft
Nearby Weather Stations

Elev 5075 ft 35.25 °N, 106.62 °W | Updated 21 seconds ago

Partly Cloudy
Partly Cloudy
47.6 °F
Feels Like 48 °F
N
3.0
Wind Variable Wind from NW
Gusts 6.0 mph

Today
High -- | Low -- °F
--% Chance of Precip.
Yesterday
High -- | Low -- °F
Precip. -- in
Pressure 30.12 in
Visibility 10.0 miles
Clouds Clear
Windchill 48 °F
Dew Point 16 °F
Humidity 28%
Rainfall Not available.
Snow Depth Not available.
6:54 AM 5:47 PM
Waxing Crescent, 40% visible
METAR KAEG 140915Z AUTO 11004KT 10SM CLR 03/M10 A3012 RMK AO2 T00261104
Pressure 30.12 in
Visibility 10.0 miles
Clouds Clear
Windchill 48 °F
Dew Point 16 °F
Humidity 28%
Rainfall Not available.
Snow Depth Not available.
6:54 AM 5:47 PM
Waxing Crescent, 40% visible
METAR KAEG 140915Z AUTO 11004KT 10SM CLR 03/M10 A3012 RMK AO2 T00261104

10-Day Weather Forecast

Almanac

Astronomy

Feb. 14, 2016 Rise Set
Actual Time
Civil Twilight
Nautical Twilight
Astronomical Twilight
Moon
Length of Visible Light
Length of Day
Tomorrow will be .
, % of the Moon is Illuminated

Today's Extremes

State Highs State Lows

Community

WunderPhotos

Upload Photos

1,892,763 photos uploaded!

WunderBlog® & News

Nearby

Air Quality

  Air Quality AQ Index Pollutant
Not available.

Snow Depth

Station Depth Elevation

Earthquake Activity

City Distance Mag. Time & Date
Minimum magnitude displayed is 2.5.

Coastal Water Temperatures

Place Temperature

Stations

Nearby Weather Stations

Station Location Temp. Windchill Dew Point Humidity Wind Precip. Elev Updated Type
                   

Watches & Warnings

There are currently no watches in effect.